Time;durP1;ratioP1;P1;durP2;ratioP2;P2;SDS_P1;SDS_P2;PMS_P1;PMS_P2;Temp;Humidity;BMP_temperature;BMP_pressure;BME280_temperature;BME280_humidity;BME280_pressure;Samples;Min_cycle;Max_cycle;Signal;HPM_P1;HPM_P2
2021/04/08 00:01:10;;;;;;;9.35;7.15;;;;;;;2.13;57.61;94614.44;2977876;39;20056;-73
2021/04/08 00:03:11;;;;;;;10.02;7.05;;;;;;;2.15;57.34;94617.75;2980047;39;20370;-72
2021/04/08 00:05:14;;;;;;;10.80;6.68;;;;;;;2.15;57.28;94618.59;2983070;39;20051;-74
2021/04/08 00:07:15;;;;;;;9.75;6.90;;;;;;;2.20;57.53;94613.09;2967683;40;20089;-73
2021/04/08 00:09:16;;;;;;;10.43;6.63;;;;;;;2.13;57.22;94609.28;2983966;39;20044;-73
2021/04/08 00:11:17;;;;;;;10.90;6.70;;;;;;;2.03;58.29;94607.38;2976591;39;20051;-72
2021/04/08 00:13:19;;;;;;;10.57;6.85;;;;;;;2.11;57.87;94611.16;2984666;39;20062;-72
2021/04/08 00:15:20;;;;;;;10.13;6.88;;;;;;;2.11;57.65;94611.16;2985160;39;20055;-74
2021/04/08 00:17:21;;;;;;;12.48;6.88;;;;;;;1.97;57.82;94609.56;2972349;40;20043;-71
2021/04/08 00:19:22;;;;;;;10.20;6.72;;;;;;;1.95;58.51;94614.84;2985206;39;20132;-73
2021/04/08 00:21:23;;;;;;;10.65;7.20;;;;;;;1.95;57.95;94608.84;2985514;39;20039;-73
2021/04/08 00:23:25;;;;;;;8.13;6.18;;;;;;;1.98;57.96;94601.72;2984565;39;20071;-72
2021/04/08 00:25:26;;;;;;;8.90;6.30;;;;;;;2.01;57.97;94606.66;2983856;39;20058;-72
2021/04/08 00:27:27;;;;;;;8.68;6.85;;;;;;;1.98;58.01;94613.78;2970078;39;20117;-72
2021/04/08 00:29:28;;;;;;;8.93;5.97;;;;;;;1.92;58.24;94604.72;2985602;39;20099;-73
2021/04/08 00:31:30;;;;;;;7.15;6.32;;;;;;;1.88;58.01;94610.22;2976104;39;20344;-72
2021/04/08 00:33:42;;;;;;;9.77;6.72;;;;;;;1.83;58.35;94611.38;2978084;39;20056;-72
2021/04/08 00:35:45;;;;;;;9.32;6.72;;;;;;;1.89;57.87;94612.69;2987214;39;20055;-71
2021/04/08 00:37:46;;;;;;;8.90;6.82;;;;;;;1.96;58.15;94610.50;2970671;39;20084;-71
2021/04/08 00:39:48;;;;;;;9.88;7.15;;;;;;;1.82;58.21;94611.47;2982500;39;20059;-72
2021/04/08 00:41:49;;;;;;;10.18;6.80;;;;;;;1.78;58.34;94615.19;2975500;39;20044;-73
2021/04/08 00:43:50;;;;;;;8.30;6.40;;;;;;;1.75;58.42;94615.44;2975172;39;20063;-73
2021/04/08 00:45:51;;;;;;;9.02;6.65;;;;;;;1.72;59.10;94615.63;2966912;40;20138;-73
2021/04/08 00:47:53;;;;;;;8.50;6.80;;;;;;;1.66;58.97;94613.47;2964741;40;20060;-72
2021/04/08 00:49:54;;;;;;;8.77;6.80;;;;;;;1.63;58.29;94610.19;2968606;40;20044;-71
2021/04/08 00:51:55;;;;;;;9.70;6.38;;;;;;;1.61;58.88;94614.66;2970069;39;20079;-72
2021/04/08 00:53:57;;;;;;;9.25;6.55;;;;;;;1.56;58.88;94615.88;2970222;40;20052;-71
2021/04/08 00:55:59;;;;;;;9.85;6.85;;;;;;;1.65;58.62;94617.81;2967914;40;20100;-71
2021/04/08 00:58:02;;;;;;;10.10;6.60;;;;;;;1.74;58.38;94624.09;2969092;40;20052;-71
2021/04/08 01:00:06;;;;;;;;;;;;;;;1.77;58.31;94614.38;2962868;40;20419;-72
2021/04/08 01:02:09;;;;;;;11.80;7.15;;;;;;;1.78;58.63;94612.63;2972489;39;19968;-72
2021/04/08 01:04:11;;;;;;;9.23;6.78;;;;;;;1.82;58.54;94619.22;2970388;40;20100;-70
2021/04/08 01:06:12;;;;;;;9.10;6.75;;;;;;;1.78;58.48;94610.84;2966126;40;20055;-70
2021/04/08 01:08:14;;;;;;;11.80;6.75;;;;;;;1.69;58.60;94616.66;2966172;40;20365;-71
2021/04/08 01:10:17;;;;;;;8.77;6.90;;;;;;;1.73;58.83;94614.72;2967082;40;20076;-72
2021/04/08 01:12:18;;;;;;;9.55;6.93;;;;;;;1.73;58.29;94615.53;2972467;40;20064;-71
2021/04/08 01:14:20;;;;;;;9.23;6.68;;;;;;;1.63;58.41;94610.19;2973669;40;20054;-71
2021/04/08 01:16:48;;;;;;;9.40;6.60;;;;;;;1.64;58.79;94609.25;2972018;40;20193;-71
2021/04/08 01:19:17;;;;;;;9.38;7.28;;;;;;;1.59;58.64;94601.00;2972262;40;20056;-71
2021/04/08 01:21:28;;;;;;;11.35;7.20;;;;;;;1.56;58.58;94606.38;2966939;40;20065;-72
2021/04/08 01:23:43;;;;;;;12.30;7.32;;;;;;;1.59;58.51;94602.75;2962620;40;20044;-72
2021/04/08 01:26:19;;;;;;;9.23;7.70;;;;;;;1.52;58.48;94610.09;2972299;40;20412;-72
2021/04/08 01:28:33;;;;;;;10.43;7.22;;;;;;;1.52;58.64;94617.03;2959389;40;20049;-71
2021/04/08 01:30:46;;;;;;;9.00;6.80;;;;;;;1.46;59.24;94614.88;2973560;39;20050;-72
2021/04/08 01:32:52;;;;;;;10.35;7.15;;;;;;;1.46;59.35;94609.69;2965194;40;20218;-71
2021/04/08 01:34:56;;;;;;;9.35;7.32;;;;;;;1.48;59.18;94618.16;2963051;40;20064;-71
2021/04/08 01:37:00;;;;;;;8.80;7.15;;;;;;;1.54;58.77;94615.16;2969194;40;20433;-72
2021/04/08 01:39:05;;;;;;;9.75;7.40;;;;;;;1.51;58.95;94618.78;2966167;40;20452;-71
2021/04/08 01:41:07;;;;;;;8.40;6.50;;;;;;;1.54;59.00;94628.88;2959316;40;20068;-71
2021/04/08 01:43:08;;;;;;;9.80;6.97;;;;;;;1.50;59.16;94609.38;2973304;39;20044;-70
2021/04/08 01:45:10;;;;;;;9.48;6.53;;;;;;;1.45;59.00;94613.22;2972821;39;20063;-71
2021/04/08 01:47:13;;;;;;;11.25;7.28;;;;;;;1.43;59.21;94615.91;2976404;39;20311;-72
2021/04/08 01:49:17;;;;;;;10.73;7.22;;;;;;;1.44;59.54;94617.53;2971239;39;20052;-71
2021/04/08 01:51:21;;;;;;;11.88;7.50;;;;;;;1.32;59.33;94624.38;2983831;39;20375;-71
2021/04/08 01:53:22;;;;;;;10.52;7.30;;;;;;;1.24;59.78;94624.06;2977287;39;20302;-71
2021/04/08 01:55:24;;;;;;;10.30;7.03;;;;;;;1.22;59.60;94616.44;2970787;39;20060;-71
2021/04/08 01:57:27;;;;;;;9.40;6.35;;;;;;;1.26;59.80;94629.97;2968308;39;20433;-72
2021/04/08 01:59:28;;;;;;;10.25;7.53;;;;;;;1.30;59.34;94630.59;2975255;39;20112;-71
2021/04/08 02:01:30;;;;;;;10.55;6.93;;;;;;;1.25;59.95;94630.06;2970337;40;20056;-83
2021/04/08 02:03:32;;;;;;;8.73;7.15;;;;;;;1.32;59.50;94629.53;2986891;39;20063;-84
2021/04/08 02:05:34;;;;;;;10.50;7.32;;;;;;;1.41;59.49;94633.25;2979764;39;20056;-84
2021/04/08 02:07:35;;;;;;;10.20;7.35;;;;;;;1.46;59.30;94636.34;2986497;39;20088;-84
2021/04/08 02:09:38;;;;;;;9.13;6.95;;;;;;;1.55;59.13;94643.47;2991127;39;20396;-84
2021/04/08 02:11:40;;;;;;;9.15;6.97;;;;;;;1.54;59.14;94644.38;2989567;39;20071;-86
2021/04/08 02:13:43;;;;;;;10.20;7.22;;;;;;;1.53;58.99;94637.59;2981987;39;20032;-85
2021/04/08 02:15:46;;;;;;;9.35;6.97;;;;;;;1.55;59.33;94640.88;2979191;40;20032;-85
2021/04/08 02:17:53;;;;;;;9.23;6.93;;;;;;;1.51;58.89;94644.59;2975105;40;20057;-86
2021/04/08 02:19:55;;;;;;;9.57;7.25;;;;;;;1.56;59.18;94649.44;2981023;39;20090;-86
2021/04/08 02:21:58;;;;;;;10.48;6.93;;;;;;;1.53;58.96;94650.50;2987114;39;20387;-85
2021/04/08 02:24:01;;;;;;;11.38;7.72;;;;;;;1.49;59.08;94650.81;2986890;39;20071;-84
2021/04/08 02:26:03;;;;;;;10.95;8.07;;;;;;;1.47;58.88;94656.06;2975213;39;20132;-84
2021/04/08 02:28:05;;;;;;;9.63;7.18;;;;;;;1.50;59.20;94657.59;2965860;40;20426;-84
2021/04/08 02:30:09;;;;;;;9.75;7.47;;;;;;;1.50;58.98;94663.59;2978392;40;20083;-83
2021/04/08 02:32:11;;;;;;;9.80;6.93;;;;;;;1.55;58.83;94656.38;2993938;39;20114;-82
2021/04/08 02:34:12;;;;;;;9.10;7.38;;;;;;;1.54;58.96;94659.88;2972813;40;20048;-83
2021/04/08 02:36:14;;;;;;;10.63;7.25;;;;;;;1.53;59.11;94663.41;2986636;39;20080;-84
2021/04/08 02:38:16;;;;;;;12.43;7.75;;;;;;;1.53;59.30;94655.66;2986653;39;20056;-84
2021/04/08 02:40:19;;;;;;;10.32;7.40;;;;;;;1.48;58.77;94668.03;2970438;40;20036;-84
2021/04/08 02:42:20;;;;;;;9.85;7.30;;;;;;;1.48;59.04;94662.88;2981170;39;20067;-83
2021/04/08 02:44:22;;;;;;;9.52;7.10;;;;;;;1.51;59.21;94665.25;2986597;39;20044;-85
2021/04/08 02:46:23;;;;;;;8.45;6.82;;;;;;;1.51;59.04;94662.69;2979646;39;20036;-85
2021/04/08 02:48:25;;;;;;;11.80;7.18;;;;;;;1.55;58.91;94663.28;2980193;39;20043;-85
2021/04/08 02:50:27;;;;;;;10.82;7.65;;;;;;;1.53;59.12;94660.81;2974297;40;20060;-83
2021/04/08 02:52:35;;;;;;;13.52;7.43;;;;;;;1.54;59.00;94665.03;2972715;40;20412;-85
2021/04/08 02:54:40;;;;;;;11.40;7.45;;;;;;;1.56;59.15;94670.91;2986719;39;20048;-84
2021/04/08 02:56:49;;;;;;;9.95;7.47;;;;;;;1.49;59.44;94671.47;2976656;40;20387;-84
2021/04/08 02:58:55;;;;;;;11.02;8.23;;;;;;;1.53;59.70;94673.72;2980410;40;20063;-82
2021/04/08 03:01:08;;;;;;;12.73;7.90;;;;;;;1.37;59.71;94673.94;2978495;40;20024;-86
2021/04/08 03:03:11;;;;;;;10.45;7.25;;;;;;;1.40;60.41;94683.25;2970333;39;20088;-84
2021/04/08 03:05:13;;;;;;;12.27;7.53;;;;;;;1.48;59.92;94683.53;2981574;39;20055;-83
2021/04/08 03:07:22;;;;;;;11.43;7.55;;;;;;;1.54;59.61;94690.84;2970263;40;20037;-84
2021/04/08 03:09:38;;;;;;;11.25;7.53;;;;;;;1.39;60.44;94681.56;2979273;39;20064;-84
2021/04/08 03:11:39;;;;;;;10.32;8.60;;;;;;;1.36;60.40;94687.78;2978542;39;20132;-84
2021/04/08 03:13:43;;;;;;;12.32;8.38;;;;;;;1.28;60.93;94696.97;2978027;40;20079;-85
2021/04/08 03:15:45;;;;;;;10.65;7.63;;;;;;;1.30;60.75;94697.69;2976638;39;20033;-84
2021/04/08 03:17:47;;;;;;;12.10;7.20;;;;;;;1.30;60.57;94695.09;2978937;40;20048;-86
2021/04/08 03:19:49;;;;;;;12.77;8.05;;;;;;;1.38;60.47;94695.44;2983093;40;20440;-84
2021/04/08 03:21:51;;;;;;;11.07;8.02;;;;;;;1.43;60.64;94701.09;2980244;39;20028;-85
2021/04/08 03:23:53;;;;;;;10.15;7.57;;;;;;;1.46;60.45;94708.63;2972946;40;20052;-82
2021/04/08 03:25:55;;;;;;;12.95;7.80;;;;;;;1.53;60.66;94711.63;2978423;39;20059;-83
2021/04/08 03:27:56;;;;;;;8.43;6.65;;;;;;;1.51;60.05;94719.47;2986222;39;20367;-85
2021/04/08 03:29:58;;;;;;;11.30;7.88;;;;;;;1.45;60.34;94725.03;2983890;39;20444;-83
2021/04/08 03:32:00;;;;;;;10.02;7.80;;;;;;;1.46;60.26;94733.63;2978567;40;20068;-83
2021/04/08 03:34:01;;;;;;;12.25;8.02;;;;;;;1.49;60.39;94729.06;2978640;40;20036;-84
2021/04/08 03:36:03;;;;;;;9.43;7.35;;;;;;;1.53;60.21;94729.72;2979289;39;20112;-85
2021/04/08 03:38:06;;;;;;;9.52;6.82;;;;;;;1.52;60.34;94740.94;2980076;39;20296;-83
2021/04/08 03:40:09;;;;;;;13.85;8.55;;;;;;;1.56;59.78;94739.81;2979046;40;20032;-84
2021/04/08 03:42:14;;;;;;;9.93;8.18;;;;;;;1.49;60.36;94748.91;2982297;39;20052;-84
2021/04/08 03:44:16;;;;;;;12.07;7.88;;;;;;;1.52;60.14;94749.50;2993084;39;20043;-83
2021/04/08 03:46:18;;;;;;;11.18;8.57;;;;;;;1.52;60.37;94751.28;2992604;39;20056;-81
2021/04/08 03:48:20;;;;;;;14.00;8.23;;;;;;;1.53;60.17;94756.34;2984721;39;20427;-83
2021/04/08 03:50:21;;;;;;;10.98;7.68;;;;;;;1.53;60.18;94758.94;2989144;39;20031;-85
2021/04/08 03:52:22;;;;;;;13.32;8.55;;;;;;;1.59;60.51;94766.25;2981971;39;20103;-84
2021/04/08 03:54:25;;;;;;;11.15;8.02;;;;;;;1.67;59.87;94763.16;2992626;39;20062;-84
2021/04/08 03:56:26;;;;;;;16.27;8.50;;;;;;;1.60;59.60;94762.75;2984746;39;20044;-85
2021/04/08 03:58:28;;;;;;;11.63;8.18;;;;;;;1.61;60.10;94764.41;2979435;40;20044;-84
2021/04/08 04:00:30;;;;;;;11.25;7.68;;;;;;;1.64;59.82;94764.19;2999506;39;20079;-84
2021/04/08 04:02:32;;;;;;;10.45;7.63;;;;;;;1.67;60.03;94772.66;2979283;40;20033;-84
2021/04/08 04:04:34;;;;;;;11.77;7.68;;;;;;;1.67;60.11;94772.66;2993707;39;20047;-84
2021/04/08 04:06:37;;;;;;;11.52;7.32;;;;;;;1.61;60.07;94773.88;2991934;39;20047;-84
2021/04/08 04:08:39;;;;;;;10.43;7.20;;;;;;;1.54;60.04;94778.63;2981839;39;20048;-83
2021/04/08 04:10:41;;;;;;;11.70;7.57;;;;;;;1.45;60.28;94788.75;2997248;39;20303;-84
2021/04/08 04:12:43;;;;;;;11.10;7.82;;;;;;;1.47;60.23;94792.91;2997725;39;20096;-84
2021/04/08 04:14:45;;;;;;;10.18;7.80;;;;;;;1.26;61.00;94783.97;2965036;40;20057;-84
2021/04/08 04:16:48;;;;;;;11.95;7.57;;;;;;;1.32;61.45;94794.72;2989438;39;20032;-83
2021/04/08 04:18:49;;;;;;;11.40;7.97;;;;;;;1.26;61.10;94794.31;3000029;39;20131;-83
2021/04/08 04:20:50;;;;;;;12.35;8.23;;;;;;;1.16;61.42;94802.66;2998116;39;20403;-84
2021/04/08 04:22:52;;;;;;;11.27;7.88;;;;;;;1.22;61.84;94804.81;2986255;39;20044;-83
2021/04/08 04:24:53;;;;;;;11.88;8.30;;;;;;;1.19;61.74;94802.44;2988640;39;20080;-85
2021/04/08 04:26:54;;;;;;;13.05;9.30;;;;;;;1.08;62.06;94810.06;2994759;39;20027;-83
2021/04/08 04:28:55;;;;;;;15.68;8.65;;;;;;;1.02;62.08;94819.00;3003206;39;20099;-83
2021/04/08 04:30:57;;;;;;;13.15;8.07;;;;;;;1.13;61.69;94820.09;2979176;39;20425;-84
2021/04/08 04:32:58;;;;;;;11.50;8.15;;;;;;;1.14;61.92;94822.56;2992000;39;20055;-84
2021/04/08 04:34:59;;;;;;;12.95;8.32;;;;;;;1.16;61.89;94817.28;2998471;39;20043;-85
2021/04/08 04:37:01;;;;;;;13.18;8.25;;;;;;;1.32;61.74;94832.63;2997910;39;20055;-85
2021/04/08 04:39:04;;;;;;;13.35;9.15;;;;;;;1.36;61.20;94824.56;2998334;39;20012;-85
2021/04/08 04:41:05;;;;;;;14.15;8.05;;;;;;;1.37;61.14;94831.38;2998156;39;20027;-82
2021/04/08 04:43:06;;;;;;;11.00;7.80;;;;;;;1.31;60.98;94824.06;2987083;39;20044;-83
2021/04/08 04:45:10;;;;;;;11.93;8.00;;;;;;;1.40;61.25;94827.78;2989778;39;20051;-84
2021/04/08 04:47:11;;;;;;;9.90;8.05;;;;;;;1.13;61.63;94840.72;2990123;39;20043;-85
2021/04/08 04:49:13;;;;;;;11.63;8.10;;;;;;;1.24;61.61;94840.84;2989761;39;20405;-84
2021/04/08 04:51:14;;;;;;;10.68;8.20;;;;;;;1.27;61.15;94844.97;2972190;40;20078;-84
2021/04/08 04:53:15;;;;;;;12.20;8.90;;;;;;;1.38;60.96;94839.97;2990871;39;20027;-84
2021/04/08 04:55:17;;;;;;;14.55;8.60;;;;;;;1.33;61.48;94842.81;2992982;39;20059;-85
2021/04/08 04:57:18;;;;;;;12.05;8.27;;;;;;;1.37;61.11;94840.88;2989530;39;20056;-85
2021/04/08 04:59:19;;;;;;;16.33;8.77;;;;;;;1.42;60.86;94839.66;2998090;39;20040;-85
2021/04/08 05:01:21;;;;;;;11.70;8.35;;;;;;;1.33;60.77;94836.84;2982990;39;20028;-84
2021/04/08 05:03:22;;;;;;;25.48;8.50;;;;;;;1.40;60.52;94849.25;2983832;39;20024;-87
2021/04/08 05:05:23;;;;;;;14.50;10.35;;;;;;;1.47;60.97;94849.69;2989240;39;20154;-86
2021/04/08 05:07:24;;;;;;;20.17;9.13;;;;;;;1.41;60.63;94850.91;2964789;40;20434;-85
2021/04/08 05:09:29;;;;;;;12.48;8.63;;;;;;;1.50;60.25;94852.06;2982450;39;20087;-84
2021/04/08 05:11:32;;;;;;;12.30;8.85;;;;;;;1.60;60.51;94852.28;3001021;39;20020;-85
2021/04/08 05:13:33;;;;;;;16.70;9.70;;;;;;;1.59;60.29;94851.47;2988367;40;20036;-86
2021/04/08 05:15:35;;;;;;;10.98;8.68;;;;;;;1.58;59.90;94856.72;2998949;39;20035;-85
2021/04/08 05:17:47;;;;;;;12.40;8.35;;;;;;;1.47;60.28;94859.19;3003629;39;20055;-85
2021/04/08 05:19:51;;;;;;;16.00;8.68;;;;;;;1.51;60.48;94850.31;2994944;39;20293;-83
2021/04/08 05:21:52;;;;;;;12.15;8.52;;;;;;;1.67;60.18;94852.72;2991235;39;20027;-87
2021/04/08 05:23:56;;;;;;;12.80;8.57;;;;;;;1.63;59.92;94863.25;2980006;40;20103;-84
2021/04/08 05:25:57;;;;;;;11.65;8.55;;;;;;;1.69;59.29;94853.44;2980425;39;20140;-86
2021/04/08 05:27:58;;;;;;;15.25;8.25;;;;;;;1.68;59.35;94862.09;2990560;39;20197;-84
2021/04/08 05:30:00;;;;;;;16.70;9.15;;;;;;;1.78;59.91;94856.22;2989200;39;20040;-85
2021/04/08 05:32:02;;;;;;;16.85;9.60;;;;;;;1.79;59.59;94852.72;2989432;39;20063;-88
2021/04/08 05:34:03;;;;;;;14.82;8.50;;;;;;;1.84;59.24;94862.75;2981514;39;20416;-84
2021/04/08 05:36:05;;;;;;;9.60;7.82;;;;;;;1.93;58.40;94862.13;2980013;40;20165;-86
2021/04/08 05:38:06;;;;;;;13.85;8.50;;;;;;;1.89;58.96;94860.69;2979456;39;20481;-83
2021/04/08 05:40:08;;;;;;;13.68;9.05;;;;;;;1.98;58.77;94867.84;2987980;39;20068;-86
2021/04/08 05:42:09;;;;;;;10.52;8.23;;;;;;;1.87;58.28;94870.28;2979181;40;20068;-85
2021/04/08 05:44:13;;;;;;;12.85;7.80;;;;;;;1.88;57.98;94871.13;2988887;39;20070;-84
2021/04/08 05:46:15;;;;;;;12.88;8.45;;;;;;;1.92;58.64;94880.34;2979291;39;20039;-84
2021/04/08 05:48:16;;;;;;;11.60;8.07;;;;;;;1.91;58.36;94881.25;2987992;39;20110;-85
2021/04/08 05:50:18;;;;;;;14.23;8.23;;;;;;;2.08;58.50;94878.38;2978774;39;20080;-85
2021/04/08 05:52:19;;;;;;;15.30;9.30;;;;;;;1.86;59.10;94875.56;2987302;39;20032;-85
2021/04/08 05:54:20;;;;;;;16.23;10.00;;;;;;;1.55;60.54;94888.75;2978477;39;20255;-88
2021/04/08 05:56:22;;;;;;;12.45;8.82;;;;;;;1.64;60.35;94890.72;2989830;39;20032;-85
2021/04/08 05:58:23;;;;;;;14.77;8.55;;;;;;;1.68;59.62;94893.94;2999788;39;20055;-86
2021/04/08 06:00:25;;;;;;;12.43;8.70;;;;;;;1.90;59.40;94892.53;2992203;39;20327;-85
2021/04/08 06:02:26;;;;;;;16.13;9.10;;;;;;;1.96;58.49;94892.94;2992578;39;20068;-84
2021/04/08 06:04:27;;;;;;;12.98;8.30;;;;;;;2.06;58.67;94893.16;2988761;39;20097;-86
2021/04/08 06:06:29;;;;;;;13.60;9.60;;;;;;;2.08;58.23;94896.47;2987603;39;20048;-86
2021/04/08 06:08:33;;;;;;;15.95;10.35;;;;;;;1.38;60.21;94907.09;2972557;39;20129;-73
2021/04/08 06:10:34;;;;;;;12.68;8.70;;;;;;;1.17;61.48;94902.34;2988340;39;20051;-72
2021/04/08 06:12:39;;;;;;;12.95;8.93;;;;;;;1.15;62.26;94911.13;2976329;39;20047;-71
2021/04/08 06:14:41;;;;;;;16.33;8.23;;;;;;;1.09;61.96;94917.47;2981785;39;20074;-73
2021/04/08 06:16:43;;;;;;;13.25;8.45;;;;;;;1.16;61.61;94918.78;2974521;39;20372;-73
2021/04/08 06:18:44;;;;;;;16.08;8.82;;;;;;;0.91;61.82;94923.81;2965210;40;20133;-71
2021/04/08 06:20:45;;;;;;;14.52;8.65;;;;;;;0.80;62.63;94930.44;2980538;39;20078;-72
2021/04/08 06:22:50;;;;;;;14.23;8.75;;;;;;;0.87;62.12;94930.06;2978805;39;20055;-72
2021/04/08 06:24:57;;;;;;;12.50;8.65;;;;;;;1.15;61.85;94929.19;2979722;39;20047;-74
2021/04/08 06:26:58;;;;;;;15.55;9.02;;;;;;;1.33;60.93;94940.09;2976311;39;20036;-73
2021/04/08 06:29:00;;;;;;;16.73;9.50;;;;;;;1.34;60.20;94931.44;2979992;39;20056;-70
2021/04/08 06:31:20;;;;;;;22.23;9.48;;;;;;;1.59;60.10;94934.09;2976108;39;20044;-72
2021/04/08 06:33:21;;;;;;;14.77;9.52;;;;;;;1.52;60.18;94940.56;2983358;39;20075;-73
2021/04/08 06:35:23;;;;;;;16.73;9.63;;;;;;;1.56;59.87;94933.47;2974607;39;20062;-71
2021/04/08 06:37:24;;;;;;;11.93;8.45;;;;;;;1.54;60.65;94932.75;2966222;39;20616;-72
2021/04/08 06:39:26;;;;;;;14.77;9.55;;;;;;;1.64;59.67;94939.78;2983181;39;20048;-71
2021/04/08 06:41:27;;;;;;;14.95;9.65;;;;;;;1.57;60.04;94942.84;2974264;39;20051;-74
2021/04/08 06:43:31;;;;;;;15.63;9.35;;;;;;;1.78;59.63;94945.81;2977711;39;20427;-72
2021/04/08 06:45:33;;;;;;;;;;;;;;;2.07;59.30;94935.34;2964047;40;20056;-74
2021/04/08 06:48:19;;;;;;;12.85;9.05;;;;;;;2.18;58.44;94950.97;2975140;39;19994;-72
2021/04/08 06:50:22;;;;;;;11.38;8.20;;;;;;;2.10;57.62;94945.47;2971848;39;20096;-72
2021/04/08 06:52:24;;;;;;;15.65;9.35;;;;;;;2.03;58.01;94945.88;2974808;39;20316;-72
2021/04/08 06:54:27;;;;;;;13.32;9.25;;;;;;;2.09;58.20;94957.56;2983308;39;20092;-72
2021/04/08 06:56:29;;;;;;;15.05;8.82;;;;;;;2.03;57.70;94955.38;2990392;39;20433;-73
2021/04/08 06:58:30;;;;;;;14.68;8.63;;;;;;;2.08;57.77;94955.06;2975043;39;20087;-71
2021/04/08 07:00:48;;;;;;;13.02;8.45;;;;;;;2.21;56.97;94958.50;2976071;39;20158;-72
2021/04/08 07:02:50;;;;;;;13.35;8.75;;;;;;;2.35;56.58;94950.66;2974699;39;20059;-71
2021/04/08 07:04:52;;;;;;;14.95;8.07;;;;;;;2.33;56.67;94952.50;2982838;39;20140;-72
2021/04/08 07:06:53;;;;;;;11.77;8.38;;;;;;;2.49;56.42;94954.06;2974680;39;20823;-73
2021/04/08 07:08:56;;;;;;;12.98;8.60;;;;;;;2.58;55.53;94958.59;2987140;39;20335;-85
2021/04/08 07:10:59;;;;;;;12.70;8.25;;;;;;;2.62;55.83;94960.06;2982329;40;20063;-83
2021/04/08 07:13:00;;;;;;;11.63;8.27;;;;;;;2.61;55.57;94959.22;2984901;40;20056;-84
2021/04/08 07:15:02;;;;;;;11.57;8.25;;;;;;;2.61;55.83;94955.81;2988007;39;20416;-85
2021/04/08 07:17:08;;;;;;;12.57;8.48;;;;;;;2.69;54.94;94969.06;2963054;40;20037;-86
2021/04/08 07:19:10;;;;;;;12.07;7.70;;;;;;;2.85;54.95;94963.66;2982271;39;20047;-87
2021/04/08 07:21:11;;;;;;;12.68;8.43;;;;;;;2.75;54.05;94967.81;2978441;40;20055;-86
2021/04/08 07:23:15;;;;;;;13.90;7.50;;;;;;;3.04;54.22;94969.22;2974939;40;20597;-73
2021/04/08 07:25:18;;;;;;;11.50;8.30;;;;;;;3.32;53.56;94964.69;2982488;39;20546;-72
2021/04/08 07:27:23;;;;;;;15.27;8.48;;;;;;;3.45;53.09;94973.25;2984586;39;20050;-72
2021/04/08 07:29:39;;;;;;;15.23;9.98;;;;;;;2.84;54.92;94974.97;2974735;40;20347;-73
2021/04/08 07:31:40;;;;;;;14.15;8.80;;;;;;;2.83;55.21;94970.69;2980755;39;20047;-72
2021/04/08 07:33:42;;;;;;;22.85;10.93;;;;;;;2.83;54.54;94971.53;2981147;39;20060;-70
2021/04/08 07:35:44;;;;;;;13.55;8.23;;;;;;;2.97;54.66;94974.91;2981479;39;20048;-70
2021/04/08 07:37:57;;;;;;;18.02;8.65;;;;;;;3.37;53.27;94972.13;2980119;39;20124;-72
2021/04/08 07:40:19;;;;;;;13.60;8.73;;;;;;;3.39;52.93;94978.03;2982396;39;20052;-73
2021/04/08 07:42:31;;;;;;;13.38;8.32;;;;;;;3.61;52.20;94980.75;2976151;39;20360;-72
2021/04/08 07:44:48;;;;;;;14.13;7.32;;;;;;;3.85;50.65;94977.31;2982204;39;20056;-71
2021/04/08 07:46:49;;;;;;;12.20;7.47;;;;;;;4.08;50.51;94975.66;2984034;39;20341;-70
2021/04/08 07:48:50;;;;;;;15.80;9.15;;;;;;;3.72;51.54;94984.34;2984208;39;20444;-71
2021/04/08 07:50:57;;;;;;;14.05;8.15;;;;;;;3.43;52.24;94979.47;2983374;39;20063;-72
2021/04/08 07:52:58;;;;;;;10.15;7.45;;;;;;;3.68;51.59;94973.38;2979368;39;20185;-73
2021/04/08 07:55:04;;;;;;;9.38;7.05;;;;;;;3.76;50.72;94983.19;2971155;39;20421;-73
2021/04/08 07:57:05;;;;;;;17.40;9.77;;;;;;;3.86;50.70;94986.78;2984321;39;20051;-72
2021/04/08 07:59:28;;;;;;;13.25;6.78;;;;;;;2.79;50.15;94985.59;2975914;39;20092;-71
2021/04/08 08:01:30;;;;;;;14.55;8.00;;;;;;;3.20;51.07;94974.13;2988985;39;20066;-72
2021/04/08 08:03:35;;;;;;;13.38;6.90;;;;;;;3.45;50.46;94977.59;2989075;39;20432;-72
2021/04/08 08:05:41;;;;;;;12.32;7.05;;;;;;;3.72;49.53;94984.34;2975673;39;20290;-72
2021/04/08 08:07:44;;;;;;;10.35;6.85;;;;;;;3.88;48.96;94985.72;2990049;39;20304;-72
2021/04/08 08:09:48;;;;;;;12.18;6.88;;;;;;;4.03;49.07;94983.78;2980622;39;20170;-73
2021/04/08 08:11:51;;;;;;;8.73;6.57;;;;;;;4.41;49.12;94990.50;2970097;39;20145;-72
2021/04/08 08:13:54;;;;;;;9.25;6.20;;;;;;;4.49;48.13;94988.13;2982584;39;20059;-73
2021/04/08 08:16:20;;;;;;;13.32;6.60;;;;;;;3.88;46.89;94993.50;2978621;39;20109;-71
2021/04/08 08:18:31;;;;;;;8.88;5.65;;;;;;;3.84;46.20;94983.47;2982359;39;20087;-74
2021/04/08 08:20:32;;;;;;;9.10;5.57;;;;;;;4.15;47.13;94987.25;2987148;39;20051;-72
2021/04/08 08:22:36;;;;;;;12.07;6.38;;;;;;;4.54;46.00;94980.03;2981028;39;20469;-73
2021/04/08 08:24:51;;;;;;;10.07;6.72;;;;;;;4.21;46.66;94978.16;2985636;39;20103;-71
2021/04/08 08:26:53;;;;;;;13.23;9.00;;;;;;;4.42;47.40;94978.34;2977443;39;20334;-71
2021/04/08 08:28:57;;;;;;;8.85;5.38;;;;;;;4.58;45.36;94985.78;2991696;39;20314;-72
2021/04/08 08:31:00;;;;;;;7.28;5.30;;;;;;;4.66;44.93;94981.69;2984888;39;20056;-73
2021/04/08 08:33:05;;;;;;;14.43;6.13;;;;;;;4.74;45.16;94983.72;2973558;39;20063;-72
2021/04/08 08:35:08;;;;;;;10.50;6.50;;;;;;;4.18;45.78;94996.56;2984422;39;20147;-71
2021/04/08 08:37:11;;;;;;;11.00;5.93;;;;;;;4.07;47.56;94987.78;2966810;40;20088;-72
2021/04/08 08:39:20;;;;;;;12.05;6.18;;;;;;;4.23;46.94;94991.84;2974349;39;20425;-74
2021/04/08 08:41:21;;;;;;;9.10;6.43;;;;;;;4.41;46.74;94998.28;2976234;39;20052;-73
2021/04/08 08:43:23;;;;;;;8.23;5.93;;;;;;;4.06;46.46;94993.91;2984994;39;20071;-72
2021/04/08 08:45:24;;;;;;;12.18;6.97;;;;;;;3.48;47.74;95003.28;2989395;39;20110;-74
2021/04/08 08:47:29;;;;;;;8.40;6.13;;;;;;;3.55;47.20;94998.50;2990027;39;20078;-72
2021/04/08 08:49:40;;;;;;;10.20;6.00;;;;;;;3.52;47.91;95007.31;2983403;39;20063;-74
2021/04/08 08:51:41;;;;;;;8.30;5.88;;;;;;;3.39;47.64;95003.94;2975250;39;20055;-73
2021/04/08 08:53:42;;;;;;;11.02;6.50;;;;;;;3.56;47.86;94995.81;2984384;39;20058;-71
2021/04/08 08:55:45;;;;;;;9.40;6.68;;;;;;;3.84;47.22;94994.66;2979303;39;20052;-72
2021/04/08 08:57:52;;;;;;;14.52;6.78;;;;;;;4.13;47.04;95014.19;2983163;39;20051;-70
2021/04/08 08:59:55;;;;;;;11.15;6.30;;;;;;;3.31;47.39;95006.22;2969836;39;20059;-74
2021/04/08 09:01:56;;;;;;;10.13;6.10;;;;;;;3.12;48.13;95011.84;2987580;39;20051;-74
2021/04/08 09:03:58;;;;;;;12.68;6.60;;;;;;;3.14;48.76;95010.00;2977438;39;20060;-72
2021/04/08 09:06:05;;;;;;;8.23;5.97;;;;;;;3.48;48.01;95006.72;2989446;39;20062;-71
2021/04/08 09:08:13;;;;;;;11.45;6.80;;;;;;;3.71;47.65;95008.59;2986519;39;20059;-75
2021/04/08 09:10:30;;;;;;;14.85;7.60;;;;;;;3.97;47.54;95004.13;2982436;39;20464;-72
2021/04/08 09:12:32;;;;;;;13.52;7.18;;;;;;;4.25;47.02;95008.94;2986405;39;20047;-71
2021/04/08 09:14:34;;;;;;;10.73;6.95;;;;;;;4.47;45.84;94996.97;2967103;40;20084;-74
2021/04/08 09:16:43;;;;;;;9.02;5.80;;;;;;;4.70;45.29;95003.03;2979604;39;20055;-71
2021/04/08 09:19:09;;;;;;;7.13;5.22;;;;;;;4.83;43.99;94998.56;2982407;39;20111;-73
2021/04/08 09:21:11;;;;;;;10.73;6.68;;;;;;;4.51;44.86;95001.00;2988234;39;20089;-73
2021/04/08 09:23:13;;;;;;;11.77;6.93;;;;;;;4.36;45.35;94996.97;2973558;40;20051;-72
2021/04/08 09:25:16;;;;;;;15.48;7.35;;;;;;;4.46;45.28;94993.56;2958856;40;20085;-71
2021/04/08 09:27:21;;;;;;;14.43;6.50;;;;;;;4.51;44.90;94990.63;2970921;39;20064;-73
2021/04/08 09:29:34;;;;;;;8.40;5.60;;;;;;;4.81;43.51;94992.66;2984279;39;20048;-72
2021/04/08 09:31:36;;;;;;;8.18;5.85;;;;;;;5.05;43.00;94991.72;2984846;39;20083;-72
2021/04/08 09:33:40;;;;;;;10.15;6.13;;;;;;;5.02;42.29;94990.22;2984127;39;20047;-71
2021/04/08 09:35:43;;;;;;;7.32;4.95;;;;;;;4.97;42.14;94994.09;2983777;39;20399;-72
2021/04/08 09:37:45;;;;;;;13.27;5.67;;;;;;;4.73;41.51;95002.78;2975625;39;20434;-72
2021/04/08 09:39:46;;;;;;;10.55;5.75;;;;;;;4.75;42.86;95003.50;2973799;39;20059;-71
2021/04/08 09:41:52;;;;;;;11.48;6.18;;;;;;;4.78;42.35;95003.28;2984866;39;20054;-72
2021/04/08 09:43:54;;;;;;;8.13;6.25;;;;;;;4.51;42.66;94998.41;2974619;39;20062;-72
2021/04/08 09:46:00;;;;;;;14.57;5.50;;;;;;;4.25;42.25;95015.91;2983054;39;20048;-73